sensor_id;sensor_type;location;lat;lon;timestamp;temperature;humidity
3528;DHT22;1778;47.966;7.854;2022-08-04T00:01:06;22.10;99.90
3528;DHT22;1778;47.966;7.854;2022-08-04T00:03:54;22.10;99.90
3528;DHT22;1778;47.966;7.854;2022-08-04T00:05:05;22.10;99.90
3528;DHT22;1778;47.966;7.854;2022-08-04T00:08:06;22.10;99.90
3528;DHT22;1778;47.966;7.854;2022-08-04T00:10:33;22.00;99.90
3528;DHT22;1778;47.966;7.854;2022-08-04T00:11:38;22.00;99.90
3528;DHT22;1778;47.966;7.854;2022-08-04T00:12:46;22.00;99.90
3528;DHT22;1778;47.966;7.854;2022-08-04T00:14:05;21.90;99.90
3528;DHT22;1778;47.966;7.854;2022-08-04T00:15:10;21.90;99.90
3528;DHT22;1778;47.966;7.854;2022-08-04T00:16:16;21.90;99.90
3528;DHT22;1778;47.966;7.854;2022-08-04T00:17:31;21.90;99.90
3528;DHT22;1778;47.966;7.854;2022-08-04T00:18:39;21.90;99.90
3528;DHT22;1778;47.966;7.854;2022-08-04T00:19:44;21.90;99.90
3528;DHT22;1778;47.966;7.854;2022-08-04T00:20:48;21.90;99.90
3528;DHT22;1778;47.966;7.854;2022-08-04T00:21:57;21.90;99.90
3528;DHT22;1778;47.966;7.854;2022-08-04T00:23:01;21.90;99.90
3528;DHT22;1778;47.966;7.854;2022-08-04T00:24:03;21.90;99.90
3528;DHT22;1778;47.966;7.854;2022-08-04T00:25:13;21.90;99.90
3528;DHT22;1778;47.966;7.854;2022-08-04T00:26:16;21.90;99.90
3528;DHT22;1778;47.966;7.854;2022-08-04T00:27:18;21.90;99.90
3528;DHT22;1778;47.966;7.854;2022-08-04T00:28:20;21.90;99.90
3528;DHT22;1778;47.966;7.854;2022-08-04T00:29:22;21.90;99.90
3528;DHT22;1778;47.966;7.854;2022-08-04T00:30:24;21.90;99.90
3528;DHT22;1778;47.966;7.854;2022-08-04T00:31:26;21.80;99.90
3528;DHT22;1778;47.966;7.854;2022-08-04T00:32:48;21.80;99.90
3528;DHT22;1778;47.966;7.854;2022-08-04T00:33:51;21.80;99.90
3528;DHT22;1778;47.966;7.854;2022-08-04T00:34:54;21.80;99.90
3528;DHT22;1778;47.966;7.854;2022-08-04T00:35:56;21.80;99.90
3528;DHT22;1778;47.966;7.854;2022-08-04T00:36:59;21.80;99.90
3528;DHT22;1778;47.966;7.854;2022-08-04T00:38:01;21.80;99.90
3528;DHT22;1778;47.966;7.854;2022-08-04T00:39:04;21.70;99.90
3528;DHT22;1778;47.966;7.854;2022-08-04T00:43:35;21.70;99.90
3528;DHT22;1778;47.966;7.854;2022-08-04T00:46:30;21.70;99.90
3528;DHT22;1778;47.966;7.854;2022-08-04T00:50:47;21.70;99.90
3528;DHT22;1778;47.966;7.854;2022-08-04T00:52:06;21.70;99.90
3528;DHT22;1778;47.966;7.854;2022-08-04T00:55:15;21.60;99.90
3528;DHT22;1778;47.966;7.854;2022-08-04T01:00:43;21.40;99.90
3528;DHT22;1778;47.966;7.854;2022-08-04T01:01:54;21.40;99.90
3528;DHT22;1778;47.966;7.854;2022-08-04T01:15:04;21.40;99.90
3528;DHT22;1778;47.966;7.854;2022-08-04T01:16:08;21.40;99.90
3528;DHT22;1778;47.966;7.854;2022-08-04T01:17:20;21.40;99.90
3528;DHT22;1778;47.966;7.854;2022-08-04T01:18:35;21.40;99.90
3528;DHT22;1778;47.966;7.854;2022-08-04T01:25:07;21.20;99.90
3528;DHT22;1778;47.966;7.854;2022-08-04T01:29:15;21.20;99.90
3528;DHT22;1778;47.966;7.854;2022-08-04T01:30:17;21.20;99.90
3528;DHT22;1778;47.966;7.854;2022-08-04T01:31:27;21.10;99.90
3528;DHT22;1778;47.966;7.854;2022-08-04T01:32:38;21.10;99.90
3528;DHT22;1778;47.966;7.854;2022-08-04T01:33:44;21.10;99.90
3528;DHT22;1778;47.966;7.854;2022-08-04T01:35:16;21.10;99.90
3528;DHT22;1778;47.966;7.854;2022-08-04T01:37:07;21.20;99.90
3528;DHT22;1778;47.966;7.854;2022-08-04T01:39:22;21.20;99.90
3528;DHT22;1778;47.966;7.854;2022-08-04T01:40:43;21.10;99.90
3528;DHT22;1778;47.966;7.854;2022-08-04T01:41:45;21.10;99.90
3528;DHT22;1778;47.966;7.854;2022-08-04T01:42:59;21.10;99.90
3528;DHT22;1778;47.966;7.854;2022-08-04T01:44:03;21.10;99.90
3528;DHT22;1778;47.966;7.854;2022-08-04T01:45:08;21.10;99.90
3528;DHT22;1778;47.966;7.854;2022-08-04T01:46:13;21.10;99.90
3528;DHT22;1778;47.966;7.854;2022-08-04T01:47:19;21.10;99.90
3528;DHT22;1778;47.966;7.854;2022-08-04T01:48:23;21.00;99.90
3528;DHT22;1778;47.966;7.854;2022-08-04T01:49:29;21.00;99.90
3528;DHT22;1778;47.966;7.854;2022-08-04T01:50:42;21.00;99.90
3528;DHT22;1778;47.966;7.854;2022-08-04T01:51:45;21.10;99.90
3528;DHT22;1778;47.966;7.854;2022-08-04T01:52:52;21.00;99.90
3528;DHT22;1778;47.966;7.854;2022-08-04T01:53:54;21.00;99.90
3528;DHT22;1778;47.966;7.854;2022-08-04T01:54:56;21.00;99.90
3528;DHT22;1778;47.966;7.854;2022-08-04T01:56:00;21.00;99.90
3528;DHT22;1778;47.966;7.854;2022-08-04T01:57:04;21.00;99.90
3528;DHT22;1778;47.966;7.854;2022-08-04T01:58:29;21.00;99.90
3528;DHT22;1778;47.966;7.854;2022-08-04T01:59:31;21.00;99.90
3528;DHT22;1778;47.966;7.854;2022-08-04T02:00:34;21.00;99.90
3528;DHT22;1778;47.966;7.854;2022-08-04T02:01:39;21.00;99.90
3528;DHT22;1778;47.966;7.854;2022-08-04T02:02:41;21.00;99.90
3528;DHT22;1778;47.966;7.854;2022-08-04T02:03:44;21.00;99.90
3528;DHT22;1778;47.966;7.854;2022-08-04T02:05:09;21.00;99.90
3528;DHT22;1778;47.966;7.854;2022-08-04T02:09:38;20.90;99.90
3528;DHT22;1778;47.966;7.854;2022-08-04T02:12:12;20.90;99.90
3528;DHT22;1778;47.966;7.854;2022-08-04T02:14:31;20.90;99.90
3528;DHT22;1778;47.966;7.854;2022-08-04T02:17:30;20.80;99.90
3528;DHT22;1778;47.966;7.854;2022-08-04T02:21:13;20.90;99.90
3528;DHT22;1778;47.966;7.854;2022-08-04T02:22:17;20.80;99.90
3528;DHT22;1778;47.966;7.854;2022-08-04T02:23:40;20.80;99.90
3528;DHT22;1778;47.966;7.854;2022-08-04T02:24:45;20.80;99.90
3528;DHT22;1778;47.966;7.854;2022-08-04T02:25:55;20.80;99.90
3528;DHT22;1778;47.966;7.854;2022-08-04T02:27:00;20.80;99.90
3528;DHT22;1778;47.966;7.854;2022-08-04T02:30:18;20.80;99.90
3528;DHT22;1778;47.966;7.854;2022-08-04T02:32:31;20.70;99.90
3528;DHT22;1778;47.966;7.854;2022-08-04T02:33:50;20.80;99.90
3528;DHT22;1778;47.966;7.854;2022-08-04T02:35:00;20.70;99.90
3528;DHT22;1778;47.966;7.854;2022-08-04T02:36:09;20.70;99.90
3528;DHT22;1778;47.966;7.854;2022-08-04T02:37:11;20.70;99.90
3528;DHT22;1778;47.966;7.854;2022-08-04T02:39:43;20.70;99.90
3528;DHT22;1778;47.966;7.854;2022-08-04T02:40:53;20.70;99.90
3528;DHT22;1778;47.966;7.854;2022-08-04T02:42:02;20.70;99.90
3528;DHT22;1778;47.966;7.854;2022-08-04T02:43:05;20.60;99.90
3528;DHT22;1778;47.966;7.854;2022-08-04T02:44:09;20.60;99.90
3528;DHT22;1778;47.966;7.854;2022-08-04T02:45:11;20.60;99.90
3528;DHT22;1778;47.966;7.854;2022-08-04T02:46:16;20.60;99.90
3528;DHT22;1778;47.966;7.854;2022-08-04T02:47:24;20.60;99.90
3528;DHT22;1778;47.966;7.854;2022-08-04T02:48:48;20.60;99.90
3528;DHT22;1778;47.966;7.854;2022-08-04T02:49:51;20.60;99.90
3528;DHT22;1778;47.966;7.854;2022-08-04T02:50:53;20.60;99.90
3528;DHT22;1778;47.966;7.854;2022-08-04T02:51:56;20.60;99.90
3528;DHT22;1778;47.966;7.854;2022-08-04T02:52:59;20.60;99.90
3528;DHT22;1778;47.966;7.854;2022-08-04T02:54:04;20.60;99.90
3528;DHT22;1778;47.966;7.854;2022-08-04T02:55:09;20.60;99.90
3528;DHT22;1778;47.966;7.854;2022-08-04T02:56:14;20.60;99.90
3528;DHT22;1778;47.966;7.854;2022-08-04T02:57:22;20.60;99.90
3528;DHT22;1778;47.966;7.854;2022-08-04T02:58:25;20.60;99.90
3528;DHT22;1778;47.966;7.854;2022-08-04T03:00:59;20.60;99.90
3528;DHT22;1778;47.966;7.854;2022-08-04T03:02:01;20.60;99.90
3528;DHT22;1778;47.966;7.854;2022-08-04T03:04:25;20.70;99.90
3528;DHT22;1778;47.966;7.854;2022-08-04T03:11:27;20.60;99.90
3528;DHT22;1778;47.966;7.854;2022-08-04T03:23:16;20.40;99.90
3528;DHT22;1778;47.966;7.854;2022-08-04T03:28:11;20.40;99.90
3528;DHT22;1778;47.966;7.854;2022-08-04T03:37:28;20.30;99.90
3528;DHT22;1778;47.966;7.854;2022-08-04T03:40:25;20.30;99.90
3528;DHT22;1778;47.966;7.854;2022-08-04T03:42:04;20.30;99.90
3528;DHT22;1778;47.966;7.854;2022-08-04T03:47:21;20.20;99.90
3528;DHT22;1778;47.966;7.854;2022-08-04T03:48:38;20.20;99.90
3528;DHT22;1778;47.966;7.854;2022-08-04T03:50:17;20.20;99.90
3528;DHT22;1778;47.966;7.854;2022-08-04T03:51:42;20.20;99.90
3528;DHT22;1778;47.966;7.854;2022-08-04T03:53:20;20.20;99.90
3528;DHT22;1778;47.966;7.854;2022-08-04T03:56:48;20.20;99.90
3528;DHT22;1778;47.966;7.854;2022-08-04T04:04:01;20.20;99.90
3528;DHT22;1778;47.966;7.854;2022-08-04T04:05:48;20.20;99.90
3528;DHT22;1778;47.966;7.854;2022-08-04T04:07:36;20.20;99.90
3528;DHT22;1778;47.966;7.854;2022-08-04T04:10:30;20.20;99.90
3528;DHT22;1778;47.966;7.854;2022-08-04T04:15:29;20.20;99.90
3528;DHT22;1778;47.966;7.854;2022-08-04T04:24:42;20.30;99.90
3528;DHT22;1778;47.966;7.854;2022-08-04T04:29:27;20.20;99.90
3528;DHT22;1778;47.966;7.854;2022-08-04T04:30:59;20.30;99.90
3528;DHT22;1778;47.966;7.854;2022-08-04T04:33:06;20.30;99.90
3528;DHT22;1778;47.966;7.854;2022-08-04T04:35:47;20.40;99.90
3528;DHT22;1778;47.966;7.854;2022-08-04T04:41:10;20.40;99.90
3528;DHT22;1778;47.966;7.854;2022-08-04T04:42:24;20.40;99.90
3528;DHT22;1778;47.966;7.854;2022-08-04T04:46:59;20.40;99.90
3528;DHT22;1778;47.966;7.854;2022-08-04T04:49:19;20.40;99.90
3528;DHT22;1778;47.966;7.854;2022-08-04T04:52:39;20.50;99.90
3528;DHT22;1778;47.966;7.854;2022-08-04T04:56:24;20.40;99.90
3528;DHT22;1778;47.966;7.854;2022-08-04T04:57:33;20.40;99.90
3528;DHT22;1778;47.966;7.854;2022-08-04T04:58:56;20.40;99.90
3528;DHT22;1778;47.966;7.854;2022-08-04T05:00:07;20.40;99.90
3528;DHT22;1778;47.966;7.854;2022-08-04T05:03:01;20.40;99.90
3528;DHT22;1778;47.966;7.854;2022-08-04T05:12:51;20.50;99.90
3528;DHT22;1778;47.966;7.854;2022-08-04T05:14:32;20.50;99.90
3528;DHT22;1778;47.966;7.854;2022-08-04T05:15:44;20.50;99.90
3528;DHT22;1778;47.966;7.854;2022-08-04T05:16:56;20.60;99.90
3528;DHT22;1778;47.966;7.854;2022-08-04T05:18:05;20.50;99.90
3528;DHT22;1778;47.966;7.854;2022-08-04T05:19:16;20.60;99.90
3528;DHT22;1778;47.966;7.854;2022-08-04T05:20:28;20.60;99.90
3528;DHT22;1778;47.966;7.854;2022-08-04T05:22:58;20.60;99.90
3528;DHT22;1778;47.966;7.854;2022-08-04T05:24:05;20.60;99.90
3528;DHT22;1778;47.966;7.854;2022-08-04T05:25:21;20.60;99.90
3528;DHT22;1778;47.966;7.854;2022-08-04T05:26:29;20.60;99.90
3528;DHT22;1778;47.966;7.854;2022-08-04T05:27:40;20.70;99.90
3528;DHT22;1778;47.966;7.854;2022-08-04T05:28:53;20.70;99.90
3528;DHT22;1778;47.966;7.854;2022-08-04T05:29:59;20.80;99.90
3528;DHT22;1778;47.966;7.854;2022-08-04T05:31:12;20.80;99.90
3528;DHT22;1778;47.966;7.854;2022-08-04T05:32:15;20.90;99.90
3528;DHT22;1778;47.966;7.854;2022-08-04T05:33:24;21.00;99.90
3528;DHT22;1778;47.966;7.854;2022-08-04T05:34:44;21.00;99.90
3528;DHT22;1778;47.966;7.854;2022-08-04T05:35:51;21.10;99.90
3528;DHT22;1778;47.966;7.854;2022-08-04T05:37:16;21.10;99.90
3528;DHT22;1778;47.966;7.854;2022-08-04T05:38:22;21.10;99.90
3528;DHT22;1778;47.966;7.854;2022-08-04T05:39:38;21.10;99.90
3528;DHT22;1778;47.966;7.854;2022-08-04T05:40:48;21.10;99.90
3528;DHT22;1778;47.966;7.854;2022-08-04T05:41:51;21.20;99.90
3528;DHT22;1778;47.966;7.854;2022-08-04T05:42:59;21.20;99.90
3528;DHT22;1778;47.966;7.854;2022-08-04T05:44:03;21.30;99.90
3528;DHT22;1778;47.966;7.854;2022-08-04T05:45:07;21.30;99.90
3528;DHT22;1778;47.966;7.854;2022-08-04T05:46:10;21.30;99.90
3528;DHT22;1778;47.966;7.854;2022-08-04T05:47:12;21.40;99.90
3528;DHT22;1778;47.966;7.854;2022-08-04T05:48:15;21.40;99.90
3528;DHT22;1778;47.966;7.854;2022-08-04T05:49:18;21.40;99.90
3528;DHT22;1778;47.966;7.854;2022-08-04T05:50:23;21.40;99.90
3528;DHT22;1778;47.966;7.854;2022-08-04T05:51:26;21.50;99.90
3528;DHT22;1778;47.966;7.854;2022-08-04T05:52:29;21.60;99.90
3528;DHT22;1778;47.966;7.854;2022-08-04T05:53:33;21.60;99.90
3528;DHT22;1778;47.966;7.854;2022-08-04T05:54:36;21.60;99.90
3528;DHT22;1778;47.966;7.854;2022-08-04T05:55:39;21.70;99.90
3528;DHT22;1778;47.966;7.854;2022-08-04T05:57:02;21.70;99.90
3528;DHT22;1778;47.966;7.854;2022-08-04T05:58:05;21.80;99.90
3528;DHT22;1778;47.966;7.854;2022-08-04T05:59:09;21.80;99.90
3528;DHT22;1778;47.966;7.854;2022-08-04T06:00:12;21.80;99.90
3528;DHT22;1778;47.966;7.854;2022-08-04T06:01:34;21.90;99.90
3528;DHT22;1778;47.966;7.854;2022-08-04T06:02:57;22.00;99.90
3528;DHT22;1778;47.966;7.854;2022-08-04T06:04:01;22.00;99.90
3528;DHT22;1778;47.966;7.854;2022-08-04T06:05:09;22.10;99.90
3528;DHT22;1778;47.966;7.854;2022-08-04T06:06:13;22.10;99.90
3528;DHT22;1778;47.966;7.854;2022-08-04T06:07:16;22.20;99.90
3528;DHT22;1778;47.966;7.854;2022-08-04T06:08:18;22.30;99.90
3528;DHT22;1778;47.966;7.854;2022-08-04T06:09:20;22.30;99.90
3528;DHT22;1778;47.966;7.854;2022-08-04T06:10:23;22.40;99.90
3528;DHT22;1778;47.966;7.854;2022-08-04T06:11:30;22.40;99.90
3528;DHT22;1778;47.966;7.854;2022-08-04T06:13:00;22.50;99.90
3528;DHT22;1778;47.966;7.854;2022-08-04T06:14:07;22.50;99.90
3528;DHT22;1778;47.966;7.854;2022-08-04T06:15:13;22.50;99.90
3528;DHT22;1778;47.966;7.854;2022-08-04T06:16:21;22.60;99.90
3528;DHT22;1778;47.966;7.854;2022-08-04T06:17:39;22.60;99.90
3528;DHT22;1778;47.966;7.854;2022-08-04T06:19:03;22.70;99.90
3528;DHT22;1778;47.966;7.854;2022-08-04T06:20:29;22.80;99.90
3528;DHT22;1778;47.966;7.854;2022-08-04T06:21:38;22.90;99.90
3528;DHT22;1778;47.966;7.854;2022-08-04T06:22:41;23.00;99.90
3528;DHT22;1778;47.966;7.854;2022-08-04T06:23:44;23.00;99.90
3528;DHT22;1778;47.966;7.854;2022-08-04T06:24:57;23.00;99.90
3528;DHT22;1778;47.966;7.854;2022-08-04T06:26:00;23.10;99.90
3528;DHT22;1778;47.966;7.854;2022-08-04T06:27:03;23.20;99.90
3528;DHT22;1778;47.966;7.854;2022-08-04T06:28:07;23.30;99.90
3528;DHT22;1778;47.966;7.854;2022-08-04T06:29:10;23.30;99.90
3528;DHT22;1778;47.966;7.854;2022-08-04T06:30:29;23.40;99.90
3528;DHT22;1778;47.966;7.854;2022-08-04T06:31:33;23.40;99.90
3528;DHT22;1778;47.966;7.854;2022-08-04T06:33:10;23.50;99.90
3528;DHT22;1778;47.966;7.854;2022-08-04T06:34:25;23.60;99.90
3528;DHT22;1778;47.966;7.854;2022-08-04T06:35:29;23.70;99.90
3528;DHT22;1778;47.966;7.854;2022-08-04T06:36:32;23.70;99.90
3528;DHT22;1778;47.966;7.854;2022-08-04T06:37:37;23.80;99.90
3528;DHT22;1778;47.966;7.854;2022-08-04T06:38:45;23.90;99.90
3528;DHT22;1778;47.966;7.854;2022-08-04T06:40:01;23.90;99.90
3528;DHT22;1778;47.966;7.854;2022-08-04T06:41:27;24.00;99.90
3528;DHT22;1778;47.966;7.854;2022-08-04T06:42:30;24.00;99.90
3528;DHT22;1778;47.966;7.854;2022-08-04T06:43:32;24.10;99.90
3528;DHT22;1778;47.966;7.854;2022-08-04T06:44:44;24.10;99.90
3528;DHT22;1778;47.966;7.854;2022-08-04T06:45:47;24.20;99.90
3528;DHT22;1778;47.966;7.854;2022-08-04T06:46:50;24.30;99.90
3528;DHT22;1778;47.966;7.854;2022-08-04T06:47:53;24.30;99.90
3528;DHT22;1778;47.966;7.854;2022-08-04T06:48:57;24.40;99.90
3528;DHT22;1778;47.966;7.854;2022-08-04T06:50:00;24.40;99.90
3528;DHT22;1778;47.966;7.854;2022-08-04T06:51:22;24.50;99.90
3528;DHT22;1778;47.966;7.854;2022-08-04T06:52:39;24.50;99.90
3528;DHT22;1778;47.966;7.854;2022-08-04T06:53:44;24.60;99.90
3528;DHT22;1778;47.966;7.854;2022-08-04T06:54:48;24.70;99.90
3528;DHT22;1778;47.966;7.854;2022-08-04T06:55:50;24.70;99.90
3528;DHT22;1778;47.966;7.854;2022-08-04T06:56:55;24.90;99.90
3528;DHT22;1778;47.966;7.854;2022-08-04T06:57:58;24.90;99.90
3528;DHT22;1778;47.966;7.854;2022-08-04T06:59:04;25.00;99.90
3528;DHT22;1778;47.966;7.854;2022-08-04T07:00:12;25.10;99.90
3528;DHT22;1778;47.966;7.854;2022-08-04T07:01:16;25.20;99.90
3528;DHT22;1778;47.966;7.854;2022-08-04T07:02:24;25.20;99.90
3528;DHT22;1778;47.966;7.854;2022-08-04T07:03:26;25.30;99.90
3528;DHT22;1778;47.966;7.854;2022-08-04T07:04:29;25.40;99.90
3528;DHT22;1778;47.966;7.854;2022-08-04T07:05:31;25.50;99.90
3528;DHT22;1778;47.966;7.854;2022-08-04T07:06:33;25.60;99.90
3528;DHT22;1778;47.966;7.854;2022-08-04T07:07:35;25.60;99.90
3528;DHT22;1778;47.966;7.854;2022-08-04T07:08:57;25.70;99.90
3528;DHT22;1778;47.966;7.854;2022-08-04T07:10:00;25.80;99.90
3528;DHT22;1778;47.966;7.854;2022-08-04T07:11:02;26.00;99.90
3528;DHT22;1778;47.966;7.854;2022-08-04T07:12:09;26.10;99.90
3528;DHT22;1778;47.966;7.854;2022-08-04T07:13:11;26.20;99.90
3528;DHT22;1778;47.966;7.854;2022-08-04T07:14:15;26.20;99.90
3528;DHT22;1778;47.966;7.854;2022-08-04T07:15:18;26.30;99.90
3528;DHT22;1778;47.966;7.854;2022-08-04T07:16:21;26.40;99.90
3528;DHT22;1778;47.966;7.854;2022-08-04T07:17:33;26.40;99.90
3528;DHT22;1778;47.966;7.854;2022-08-04T07:18:35;26.50;99.90
3528;DHT22;1778;47.966;7.854;2022-08-04T07:19:37;26.60;99.90
3528;DHT22;1778;47.966;7.854;2022-08-04T07:20:43;26.60;99.90
3528;DHT22;1778;47.966;7.854;2022-08-04T07:21:45;26.60;99.90
3528;DHT22;1778;47.966;7.854;2022-08-04T07:23:07;26.60;99.90
3528;DHT22;1778;47.966;7.854;2022-08-04T07:24:17;26.70;99.90
3528;DHT22;1778;47.966;7.854;2022-08-04T07:25:19;26.70;99.90
3528;DHT22;1778;47.966;7.854;2022-08-04T07:26:41;26.70;99.90
3528;DHT22;1778;47.966;7.854;2022-08-04T07:27:42;26.70;99.90
3528;DHT22;1778;47.966;7.854;2022-08-04T07:28:49;26.80;99.90
3528;DHT22;1778;47.966;7.854;2022-08-04T07:29:51;26.80;99.90
3528;DHT22;1778;47.966;7.854;2022-08-04T07:30:54;26.90;99.90
3528;DHT22;1778;47.966;7.854;2022-08-04T07:31:57;27.00;99.90
3528;DHT22;1778;47.966;7.854;2022-08-04T07:33:00;27.10;99.90
3528;DHT22;1778;47.966;7.854;2022-08-04T07:34:03;27.20;99.90
3528;DHT22;1778;47.966;7.854;2022-08-04T07:35:21;27.30;99.90
3528;DHT22;1778;47.966;7.854;2022-08-04T07:36:43;27.30;99.80
3528;DHT22;1778;47.966;7.854;2022-08-04T07:37:53;27.40;99.50
3528;DHT22;1778;47.966;7.854;2022-08-04T07:38:55;27.60;99.90
3528;DHT22;1778;47.966;7.854;2022-08-04T07:39:57;27.70;98.70
3528;DHT22;1778;47.966;7.854;2022-08-04T07:40:59;27.70;98.60
3528;DHT22;1778;47.966;7.854;2022-08-04T07:42:03;27.70;98.70
3528;DHT22;1778;47.966;7.854;2022-08-04T07:43:04;27.80;99.00
3528;DHT22;1778;47.966;7.854;2022-08-04T07:44:06;27.90;98.50
3528;DHT22;1778;47.966;7.854;2022-08-04T07:45:09;27.90;98.50
3528;DHT22;1778;47.966;7.854;2022-08-04T07:46:11;28.00;98.40
3528;DHT22;1778;47.966;7.854;2022-08-04T07:47:13;28.00;97.70
3528;DHT22;1778;47.966;7.854;2022-08-04T07:48:15;28.00;97.70
3528;DHT22;1778;47.966;7.854;2022-08-04T07:49:19;28.10;98.40
3528;DHT22;1778;47.966;7.854;2022-08-04T07:50:42;28.10;98.50
3528;DHT22;1778;47.966;7.854;2022-08-04T07:51:45;28.10;98.60
3528;DHT22;1778;47.966;7.854;2022-08-04T07:52:47;28.10;98.50
3528;DHT22;1778;47.966;7.854;2022-08-04T07:54:09;28.10;98.30
3528;DHT22;1778;47.966;7.854;2022-08-04T07:55:12;28.20;98.30
3528;DHT22;1778;47.966;7.854;2022-08-04T07:56:15;28.20;97.90
3528;DHT22;1778;47.966;7.854;2022-08-04T07:57:17;28.20;98.00
3528;DHT22;1778;47.966;7.854;2022-08-04T07:58:41;28.40;98.10
3528;DHT22;1778;47.966;7.854;2022-08-04T07:59:42;28.50;97.90
3528;DHT22;1778;47.966;7.854;2022-08-04T08:00:50;28.50;97.10
3528;DHT22;1778;47.966;7.854;2022-08-04T08:01:52;28.50;97.20
3528;DHT22;1778;47.966;7.854;2022-08-04T08:02:55;28.70;96.80
3528;DHT22;1778;47.966;7.854;2022-08-04T08:03:59;28.70;96.10
3528;DHT22;1778;47.966;7.854;2022-08-04T08:05:03;28.80;96.20
3528;DHT22;1778;47.966;7.854;2022-08-04T08:06:05;28.90;96.50
3528;DHT22;1778;47.966;7.854;2022-08-04T08:07:26;28.90;96.20
3528;DHT22;1778;47.966;7.854;2022-08-04T08:08:28;29.10;95.40
3528;DHT22;1778;47.966;7.854;2022-08-04T08:09:32;29.20;95.40
3528;DHT22;1778;47.966;7.854;2022-08-04T08:10:34;29.30;95.40
3528;DHT22;1778;47.966;7.854;2022-08-04T08:11:36;29.30;95.40
3528;DHT22;1778;47.966;7.854;2022-08-04T08:12:58;29.40;95.30
3528;DHT22;1778;47.966;7.854;2022-08-04T08:14:01;29.50;94.90
3528;DHT22;1778;47.966;7.854;2022-08-04T08:15:04;29.60;94.10
3528;DHT22;1778;47.966;7.854;2022-08-04T08:16:07;29.60;94.30
3528;DHT22;1778;47.966;7.854;2022-08-04T08:17:09;29.70;94.30
3528;DHT22;1778;47.966;7.854;2022-08-04T08:18:10;29.70;94.40
3528;DHT22;1778;47.966;7.854;2022-08-04T08:19:12;29.80;94.10
3528;DHT22;1778;47.966;7.854;2022-08-04T08:20:14;29.90;93.60
3528;DHT22;1778;47.966;7.854;2022-08-04T08:21:31;30.00;93.60
3528;DHT22;1778;47.966;7.854;2022-08-04T08:22:32;30.10;93.20
3528;DHT22;1778;47.966;7.854;2022-08-04T08:23:34;30.20;93.40
3528;DHT22;1778;47.966;7.854;2022-08-04T08:24:36;30.20;93.20
3528;DHT22;1778;47.966;7.854;2022-08-04T08:25:38;30.40;92.80
3528;DHT22;1778;47.966;7.854;2022-08-04T08:26:40;30.50;92.70
3528;DHT22;1778;47.966;7.854;2022-08-04T08:27:42;30.60;92.20
3528;DHT22;1778;47.966;7.854;2022-08-04T08:28:57;30.70;91.70
3528;DHT22;1778;47.966;7.854;2022-08-04T08:29:59;30.80;91.30
3528;DHT22;1778;47.966;7.854;2022-08-04T08:31:00;30.80;92.00
3528;DHT22;1778;47.966;7.854;2022-08-04T08:32:10;30.80;92.10
3528;DHT22;1778;47.966;7.854;2022-08-04T08:33:14;30.80;91.70
3528;DHT22;1778;47.966;7.854;2022-08-04T08:34:17;30.90;92.00
3528;DHT22;1778;47.966;7.854;2022-08-04T08:35:35;30.80;91.50
3528;DHT22;1778;47.966;7.854;2022-08-04T08:38:02;30.90;91.10
3528;DHT22;1778;47.966;7.854;2022-08-04T08:40:52;31.00;90.90
3528;DHT22;1778;47.966;7.854;2022-08-04T08:48:32;31.30;89.00
3528;DHT22;1778;47.966;7.854;2022-08-04T09:00:48;31.60;84.50
3528;DHT22;1778;47.966;7.854;2022-08-04T09:05:52;31.90;83.90
3528;DHT22;1778;47.966;7.854;2022-08-04T09:06:46;31.90;83.60
3528;DHT22;1778;47.966;7.854;2022-08-04T09:09:24;32.00;84.70
3528;DHT22;1778;47.966;7.854;2022-08-04T09:10:49;32.00;82.40
3528;DHT22;1778;47.966;7.854;2022-08-04T09:12:13;32.10;82.60
3528;DHT22;1778;47.966;7.854;2022-08-04T09:13:31;32.20;82.60
3528;DHT22;1778;47.966;7.854;2022-08-04T09:14:41;32.10;81.00
3528;DHT22;1778;47.966;7.854;2022-08-04T09:16:16;32.20;81.30
3528;DHT22;1778;47.966;7.854;2022-08-04T09:17:26;32.20;80.70
3528;DHT22;1778;47.966;7.854;2022-08-04T09:20:42;32.20;80.90
3528;DHT22;1778;47.966;7.854;2022-08-04T09:21:56;32.30;80.00
3528;DHT22;1778;47.966;7.854;2022-08-04T09:24:37;32.40;78.00
3528;DHT22;1778;47.966;7.854;2022-08-04T09:25:53;32.40;78.40
3528;DHT22;1778;47.966;7.854;2022-08-04T09:27:01;32.60;76.20
3528;DHT22;1778;47.966;7.854;2022-08-04T09:28:13;32.50;76.70
3528;DHT22;1778;47.966;7.854;2022-08-04T09:29:45;32.50;78.70
3528;DHT22;1778;47.966;7.854;2022-08-04T09:30:55;32.50;78.70
3528;DHT22;1778;47.966;7.854;2022-08-04T09:32:14;32.50;79.60
3528;DHT22;1778;47.966;7.854;2022-08-04T09:39:22;32.60;79.20
3528;DHT22;1778;47.966;7.854;2022-08-04T09:45:15;32.70;78.80
3528;DHT22;1778;47.966;7.854;2022-08-04T09:46:43;32.80;78.20
3528;DHT22;1778;47.966;7.854;2022-08-04T09:47:59;32.80;75.80
3528;DHT22;1778;47.966;7.854;2022-08-04T09:50:43;32.80;76.50
3528;DHT22;1778;47.966;7.854;2022-08-04T09:54:32;33.00;71.60
3528;DHT22;1778;47.966;7.854;2022-08-04T09:55:41;33.20;71.20
3528;DHT22;1778;47.966;7.854;2022-08-04T10:00:06;33.10;69.10
3528;DHT22;1778;47.966;7.854;2022-08-04T10:01:18;33.10;72.30
3528;DHT22;1778;47.966;7.854;2022-08-04T10:02:24;33.10;73.30
3528;DHT22;1778;47.966;7.854;2022-08-04T10:03:34;33.20;73.30
3528;DHT22;1778;47.966;7.854;2022-08-04T10:04:39;33.20;71.20
3528;DHT22;1778;47.966;7.854;2022-08-04T10:07:42;33.20;70.10
3528;DHT22;1778;47.966;7.854;2022-08-04T10:16:07;33.50;66.90
3528;DHT22;1778;47.966;7.854;2022-08-04T10:17:32;33.50;67.40
3528;DHT22;1778;47.966;7.854;2022-08-04T10:22:35;33.70;67.70
3528;DHT22;1778;47.966;7.854;2022-08-04T10:25:44;33.70;66.00
3528;DHT22;1778;47.966;7.854;2022-08-04T10:27:35;33.80;64.90
3528;DHT22;1778;47.966;7.854;2022-08-04T10:29:06;33.80;63.70
3528;DHT22;1778;47.966;7.854;2022-08-04T10:30:12;33.80;63.70
3528;DHT22;1778;47.966;7.854;2022-08-04T10:31:25;33.80;63.10
3528;DHT22;1778;47.966;7.854;2022-08-04T10:32:33;33.90;62.30
3528;DHT22;1778;47.966;7.854;2022-08-04T10:33:51;33.90;62.80
3528;DHT22;1778;47.966;7.854;2022-08-04T10:35:08;33.90;61.30
3528;DHT22;1778;47.966;7.854;2022-08-04T10:36:14;33.80;61.20
3528;DHT22;1778;47.966;7.854;2022-08-04T10:37:22;33.60;61.70
3528;DHT22;1778;47.966;7.854;2022-08-04T10:39:07;33.80;62.10
3528;DHT22;1778;47.966;7.854;2022-08-04T10:40:46;33.80;62.00
3528;DHT22;1778;47.966;7.854;2022-08-04T10:41:59;33.80;59.80
3528;DHT22;1778;47.966;7.854;2022-08-04T10:46:11;33.90;59.80
3528;DHT22;1778;47.966;7.854;2022-08-04T10:47:17;33.90;59.00
3528;DHT22;1778;47.966;7.854;2022-08-04T10:49:45;34.00;60.00
3528;DHT22;1778;47.966;7.854;2022-08-04T10:51:01;34.10;57.80
3528;DHT22;1778;47.966;7.854;2022-08-04T10:52:10;34.00;56.50
3528;DHT22;1778;47.966;7.854;2022-08-04T10:53:19;34.00;56.90
3528;DHT22;1778;47.966;7.854;2022-08-04T10:56:13;34.10;56.10
3528;DHT22;1778;47.966;7.854;2022-08-04T10:57:25;34.10;55.20
3528;DHT22;1778;47.966;7.854;2022-08-04T10:58:37;34.00;55.90
3528;DHT22;1778;47.966;7.854;2022-08-04T10:59:57;34.10;56.50
3528;DHT22;1778;47.966;7.854;2022-08-04T11:01:11;34.10;56.30
3528;DHT22;1778;47.966;7.854;2022-08-04T11:02:58;34.10;55.60
3528;DHT22;1778;47.966;7.854;2022-08-04T11:04:25;34.20;55.60
3528;DHT22;1778;47.966;7.854;2022-08-04T11:06:45;34.30;55.50
3528;DHT22;1778;47.966;7.854;2022-08-04T11:07:58;34.50;55.20
3528;DHT22;1778;47.966;7.854;2022-08-04T11:09:02;34.50;54.70
3528;DHT22;1778;47.966;7.854;2022-08-04T11:10:06;34.60;54.40
3528;DHT22;1778;47.966;7.854;2022-08-04T11:11:46;34.60;54.10